createdAt,value
2022-09-07T00:02:20.702Z,22.90
2022-09-07T00:04:47.643Z,23.11
2022-09-07T00:07:34.609Z,22.74
2022-09-07T00:10:15.817Z,23.22
2022-09-07T00:12:43.137Z,22.78
2022-09-07T00:15:12.803Z,23.24
2022-09-07T00:17:40.060Z,22.91
2022-09-07T00:20:08.826Z,23.09
2022-09-07T00:22:36.175Z,22.79
2022-09-07T00:25:23.622Z,22.72
2022-09-07T00:28:04.425Z,22.98
2022-09-07T00:30:31.366Z,22.45
2022-09-07T00:32:58.255Z,22.14
2022-09-07T00:35:25.223Z,22.35
2022-09-07T00:37:52.083Z,22.33
2022-09-07T00:40:18.966Z,22.04
2022-09-07T00:42:45.875Z,21.85
2022-09-07T00:45:20.955Z,22.12
2022-09-07T00:48:05.669Z,22.51
2022-09-07T00:50:56.634Z,22.46
2022-09-07T00:53:46.160Z,22.56
2022-09-07T00:56:13.924Z,22.18
2022-09-07T00:58:43.784Z,22.26
2022-09-07T01:01:11.662Z,22.31
2022-09-07T01:03:42.444Z,22.35
2022-09-07T01:06:43.676Z,22.54
2022-09-07T01:09:44.707Z,22.43
2022-09-07T01:12:45.680Z,22.51
2022-09-07T01:15:39.627Z,22.71
2022-09-07T01:18:32.724Z,22.79
2022-09-07T01:21:21.385Z,22.81
2022-09-07T01:24:00.394Z,22.55
2022-09-07T01:26:39.430Z,22.62
2022-09-07T01:29:24.239Z,22.20
2022-09-07T01:32:11.489Z,22.58
2022-09-07T01:34:39.295Z,22.57
2022-09-07T01:37:15.160Z,22.68
2022-09-07T01:40:02.597Z,22.41
2022-09-07T01:42:34.858Z,22.01
2022-09-07T01:45:04.798Z,22.35
2022-09-07T01:47:39.149Z,22.37
2022-09-07T01:50:35.692Z,22.28
2022-09-07T01:53:34.993Z,22.12
2022-09-07T01:56:08.520Z,22.03
2022-09-07T01:58:50.122Z,21.89
2022-09-07T02:01:48.747Z,22.32
2022-09-07T02:04:40.047Z,21.90
2022-09-07T02:07:38.720Z,22.03
2022-09-07T02:10:53.680Z,21.99
2022-09-07T02:14:16.803Z,21.99
2022-09-07T02:17:06.802Z,21.74
2022-09-07T02:19:40.832Z,21.54
2022-09-07T02:22:16.401Z,21.60
2022-09-07T02:24:49.988Z,21.88
2022-09-07T02:27:24.427Z,21.89
2022-09-07T02:29:52.227Z,21.67
2022-09-07T02:32:19.255Z,21.42
2022-09-07T02:34:46.442Z,21.69
2022-09-07T02:37:15.469Z,21.57
2022-09-07T02:39:42.426Z,21.41
2022-09-07T02:42:09.722Z,21.17
2022-09-07T02:44:39.684Z,20.60
2022-09-07T02:47:29.706Z,21.15
2022-09-07T02:50:50.726Z,21.41
2022-09-07T02:53:37.672Z,21.52
2022-09-07T02:56:28.918Z,21.76
2022-09-07T02:59:33.516Z,21.86
2022-09-07T03:02:04.753Z,21.56
2022-09-07T03:04:46.941Z,21.73
2022-09-07T03:07:43.529Z,21.25
2022-09-07T03:10:24.613Z,21.35
2022-09-07T03:12:52.267Z,21.42
2022-09-07T03:15:22.687Z,21.63
2022-09-07T03:17:50.099Z,21.54
2022-09-07T03:20:17.961Z,21.52
2022-09-07T03:22:46.949Z,21.55
2022-09-07T03:25:14.589Z,21.16
2022-09-07T03:27:42.013Z,21.52
2022-09-07T03:30:10.964Z,21.63
2022-09-07T03:32:38.932Z,21.54
2022-09-07T03:35:26.748Z,21.77
2022-09-07T03:38:27.892Z,21.59
2022-09-07T03:41:08.365Z,21.57
2022-09-07T03:43:35.276Z,22.00
2022-09-07T03:46:06.798Z,21.74
2022-09-07T03:48:35.335Z,21.64
2022-09-07T03:51:23.761Z,21.57
2022-09-07T03:54:04.638Z,21.34
2022-09-07T03:56:31.642Z,21.39
2022-09-07T03:58:58.684Z,20.92
2022-09-07T04:01:27.202Z,21.23
2022-09-07T04:04:01.961Z,20.80
2022-09-07T04:06:42.769Z,20.67
2022-09-07T04:09:23.550Z,21.16
2022-09-07T04:11:50.517Z,20.62
2022-09-07T04:14:18.144Z,21.09
2022-09-07T04:16:45.654Z,21.18
2022-09-07T04:19:12.735Z,21.32
2022-09-07T04:21:40.090Z,21.63
2022-09-07T04:24:30.796Z,21.50
2022-09-07T04:27:11.529Z,21.19
2022-09-07T04:29:38.410Z,21.09
2022-09-07T04:32:05.381Z,21.09
2022-09-07T04:34:32.193Z,20.98
2022-09-07T04:36:59.133Z,20.78
2022-09-07T04:39:26.073Z,21.16
2022-09-07T04:41:53.045Z,21.43
2022-09-07T04:44:19.936Z,21.30
2022-09-07T04:46:46.818Z,21.15
2022-09-07T04:49:13.894Z,21.42
2022-09-07T04:52:00.794Z,21.07
2022-09-07T04:55:04.803Z,21.03
2022-09-07T04:57:45.409Z,20.80
2022-09-07T05:00:12.671Z,20.85
2022-09-07T05:02:59.809Z,20.80
2022-09-07T05:06:00.852Z,20.27
2022-09-07T05:08:47.579Z,20.44
2022-09-07T05:11:36.797Z,21.02
2022-09-07T05:14:17.461Z,20.91
2022-09-07T05:16:45.674Z,20.77
2022-09-07T05:19:13.367Z,21.58
2022-09-07T05:21:40.367Z,21.70
2022-09-07T05:24:07.513Z,21.77
2022-09-07T05:26:36.394Z,22.74
2022-09-07T05:31:52.767Z,22.80
2022-09-07T05:34:35.257Z,23.04
2022-09-07T05:37:02.506Z,23.32
2022-09-07T05:39:29.614Z,23.70
2022-09-07T05:41:56.864Z,24.24
2022-09-07T05:47:11.095Z,24.75
2022-09-07T05:50:04.837Z,24.29
2022-09-07T05:53:05.824Z,24.47
2022-09-07T05:55:46.873Z,25.02
2022-09-07T05:58:14.017Z,25.31
2022-09-07T06:01:00.881Z,25.15
2022-09-07T06:04:01.867Z,24.42
2022-09-07T06:07:21.172Z,24.49
2022-09-07T06:12:49.680Z,24.76
2022-09-07T06:15:16.811Z,24.90
2022-09-07T06:17:43.726Z,25.36
2022-09-07T06:20:11.020Z,25.51
2022-09-07T06:22:57.839Z,26.17
2022-09-07T06:26:02.977Z,27.43
2022-09-07T06:28:49.131Z,27.80
2022-09-07T06:31:18.718Z,28.19
2022-09-07T06:33:46.223Z,27.95
2022-09-07T06:36:15.632Z,28.27
2022-09-07T06:38:43.794Z,28.16
2022-09-07T06:44:12.366Z,27.76
2022-09-07T06:50:00.860Z,28.11
2022-09-07T06:55:43.770Z,27.39
2022-09-07T06:58:10.629Z,26.91
2022-09-07T07:00:37.481Z,26.59
2022-09-07T07:03:24.952Z,26.63
2022-09-07T07:06:26.967Z,27.08
2022-09-07T07:09:27.928Z,27.16
2022-09-07T07:12:10.182Z,27.25
2022-09-07T07:14:39.604Z,27.62
2022-09-07T07:17:08.234Z,27.95
2022-09-07T07:19:35.093Z,28.30
2022-09-07T07:24:48.926Z,28.46
2022-09-07T07:27:17.660Z,28.47
2022-09-07T07:29:45.386Z,28.05
2022-09-07T07:32:12.298Z,27.63
2022-09-07T07:34:58.869Z,26.97
2022-09-07T07:37:39.642Z,27.57
2022-09-07T07:40:17.862Z,28.16
2022-09-07T07:42:47.871Z,28.76
2022-09-07T07:51:25.991Z,29.24
2022-09-07T07:54:06.560Z,29.19
2022-09-07T07:56:33.552Z,29.15
2022-09-07T07:59:01.707Z,28.55
2022-09-07T08:01:28.628Z,28.86
2022-09-07T08:03:55.522Z,27.64
2022-09-07T08:06:22.640Z,27.16
2022-09-07T08:09:09.885Z,26.85
2022-09-07T08:12:10.949Z,26.84
2022-09-07T08:14:51.399Z,27.19
2022-09-07T08:17:18.286Z,27.22
2022-09-07T08:19:45.244Z,26.86
2022-09-07T08:22:34.870Z,26.61
2022-09-07T08:25:35.927Z,26.54
2022-09-07T08:28:23.728Z,27.18
2022-09-07T08:30:50.827Z,27.35
2022-09-07T08:33:17.882Z,27.14
2022-09-07T08:35:56.150Z,27.23
2022-09-07T08:38:23.376Z,26.89
2022-09-07T08:40:50.823Z,26.86
2022-09-07T08:43:53.919Z,27.13
2022-09-07T08:46:37.483Z,26.67
2022-09-07T08:49:13.733Z,26.29
2022-09-07T08:52:06.902Z,26.18
2022-09-07T08:54:58.883Z,25.61
2022-09-07T08:57:31.116Z,25.64
2022-09-07T09:00:04.831Z,25.44
2022-09-07T09:02:35.145Z,25.67
2022-09-07T09:05:36.120Z,26.03
2022-09-07T09:08:40.901Z,26.57
2022-09-07T09:11:50.945Z,27.03
2022-09-07T09:14:50.206Z,27.16
2022-09-07T09:17:33.009Z,26.63
2022-09-07T09:20:18.259Z,26.65
2022-09-07T09:22:45.532Z,27.34
2022-09-07T09:25:22.064Z,27.81
2022-09-07T09:27:50.186Z,27.81
2022-09-07T09:30:22.272Z,28.69
2022-09-07T09:32:52.848Z,28.89
2022-09-07T09:35:47.962Z,28.27
2022-09-07T09:38:36.009Z,28.49
2022-09-07T09:41:08.796Z,27.83
2022-09-07T09:44:04.944Z,28.35
2022-09-07T09:50:00.082Z,26.93
2022-09-07T09:52:51.634Z,26.34
2022-09-07T09:55:50.963Z,26.19
2022-09-07T10:05:01.962Z,27.24
2022-09-07T10:08:06.972Z,27.45
2022-09-07T10:11:01.024Z,27.69
2022-09-07T10:13:31.859Z,28.37
2022-09-07T10:16:06.359Z,27.73
2022-09-07T10:18:40.137Z,28.13
2022-09-07T10:21:14.180Z,28.06
2022-09-07T10:23:41.539Z,28.36
2022-09-07T10:26:27.534Z,27.88
2022-09-07T10:29:30.888Z,28.03
2022-09-07T10:32:28.664Z,28.10
2022-09-07T10:35:20.994Z,28.02
2022-09-07T10:38:35.974Z,27.80
2022-09-07T10:41:19.851Z,28.23
2022-09-07T10:44:06.985Z,27.45
2022-09-07T10:47:58.006Z,27.33
2022-09-07T10:51:13.733Z,27.96
2022-09-07T10:54:30.345Z,29.05
2022-09-07T10:57:24.480Z,29.33
2022-09-07T11:00:11.532Z,28.17
2022-09-07T11:02:43.221Z,28.28
2022-09-07T11:05:33.634Z,28.56
2022-09-07T11:12:05.103Z,29.32
2022-09-07T11:15:11.131Z,28.83
2022-09-07T11:17:52.596Z,28.37
2022-09-07T11:20:26.944Z,27.33
2022-09-07T11:23:11.167Z,26.91
2022-09-07T11:25:54.809Z,27.17
2022-09-07T11:28:30.895Z,28.39
2022-09-07T11:31:08.367Z,28.15
2022-09-07T11:37:13.544Z,28.98
2022-09-07T11:39:57.172Z,28.58
2022-09-07T11:42:48.800Z,27.89
2022-09-07T11:45:22.159Z,28.11
2022-09-07T11:47:52.009Z,29.48
2022-09-07T11:50:36.052Z,28.61
2022-09-07T11:53:47.315Z,28.27
2022-09-07T11:56:52.046Z,29.71
2022-09-07T11:59:44.747Z,30.19
2022-09-07T12:02:57.658Z,30.25
2022-09-07T12:05:31.552Z,29.64
2022-09-07T12:08:37.044Z,29.66
2022-09-07T12:12:01.210Z,30.45
2022-09-07T12:14:44.160Z,30.41
2022-09-07T12:17:13.907Z,30.57
2022-09-07T12:19:40.909Z,29.59
2022-09-07T12:22:36.050Z,29.34
2022-09-07T12:25:37.069Z,30.08
2022-09-07T12:28:37.548Z,28.97
2022-09-07T12:31:06.833Z,28.62
2022-09-07T12:33:36.805Z,28.54
2022-09-07T12:36:28.764Z,29.33
2022-09-07T12:39:20.617Z,30.16
2022-09-07T12:42:31.856Z,30.00
2022-09-07T12:44:58.098Z,29.06
2022-09-07T12:48:11.077Z,28.17
2022-09-07T12:55:16.459Z,28.94
2022-09-07T12:58:14.544Z,28.23
2022-09-07T13:01:16.256Z,28.90
2022-09-07T13:04:45.103Z,29.57
2022-09-07T13:08:08.287Z,30.14
2022-09-07T13:11:10.106Z,29.40
2022-09-07T13:14:16.155Z,29.08
2022-09-07T13:20:05.100Z,28.99
2022-09-07T13:22:54.107Z,28.79
2022-09-07T13:25:21.962Z,28.77
2022-09-07T13:27:58.469Z,28.87
2022-09-07T13:30:34.338Z,28.88
2022-09-07T13:33:24.282Z,28.63
2022-09-07T13:36:19.127Z,29.33
2022-09-07T13:38:59.901Z,28.88
2022-09-07T13:41:37.189Z,28.75
2022-09-07T13:44:36.157Z,29.46
2022-09-07T13:48:01.107Z,29.39
2022-09-07T13:51:20.194Z,30.21
2022-09-07T13:54:33.220Z,29.46
2022-09-07T13:57:52.151Z,29.25
2022-09-07T14:00:33.949Z,29.69
2022-09-07T14:03:06.356Z,30.14
2022-09-07T14:05:33.906Z,30.49
2022-09-07T14:08:39.888Z,30.76
2022-09-07T14:12:12.141Z,31.18
2022-09-07T14:15:14.543Z,31.33
2022-09-07T14:17:41.371Z,30.75
2022-09-07T14:20:14.267Z,29.64
2022-09-07T14:23:02.217Z,29.84
2022-09-07T14:28:37.699Z,29.87
2022-09-07T14:31:08.666Z,29.20
2022-09-07T14:33:35.877Z,29.85
2022-09-07T14:36:18.032Z,29.95
2022-09-07T14:39:07.014Z,30.17
2022-09-07T14:41:54.206Z,29.77
2022-09-07T14:44:55.172Z,29.97
2022-09-07T14:47:56.183Z,30.12
2022-09-07T14:51:28.999Z,29.86
2022-09-07T14:54:22.168Z,29.59
2022-09-07T14:57:11.764Z,29.81
2022-09-07T14:59:44.744Z,29.88
2022-09-07T15:02:27.185Z,29.81
2022-09-07T15:05:18.193Z,30.07
2022-09-07T15:08:09.181Z,29.90
2022-09-07T15:13:58.172Z,29.68
2022-09-07T15:20:48.190Z,29.82
2022-09-07T15:23:28.752Z,29.72
2022-09-07T15:25:55.721Z,29.86
2022-09-07T15:34:29.322Z,29.91
2022-09-07T15:39:56.843Z,29.78
2022-09-07T15:45:12.665Z,30.08
2022-09-07T15:47:47.279Z,29.83
2022-09-07T15:50:37.204Z,30.14
2022-09-07T15:56:39.456Z,29.87
2022-09-07T15:59:06.427Z,29.52
2022-09-07T16:04:20.953Z,29.12
2022-09-07T16:07:10.706Z,28.81
2022-09-07T16:10:07.019Z,28.75
2022-09-07T16:15:45.825Z,28.96
2022-09-07T16:18:48.273Z,28.73
2022-09-07T16:21:49.207Z,28.96
2022-09-07T16:24:50.209Z,29.10
2022-09-07T16:27:33.050Z,29.07
2022-09-07T16:30:00.558Z,28.79
2022-09-07T16:35:14.254Z,28.67
2022-09-07T16:38:43.529Z,28.73
2022-09-07T16:40:48.243Z,28.40
2022-09-07T16:43:49.337Z,28.58
2022-09-07T16:46:51.292Z,28.65
2022-09-07T16:49:53.265Z,28.52
2022-09-07T16:52:54.267Z,28.57
2022-09-07T16:55:34.746Z,28.61
2022-09-07T17:00:48.800Z,28.81
2022-09-07T17:03:15.610Z,28.33
2022-09-07T17:05:42.988Z,28.92
2022-09-07T17:08:30.287Z,28.50
2022-09-07T17:11:40.281Z,28.75
2022-09-07T17:14:41.329Z,28.44
2022-09-07T17:17:42.265Z,28.19
2022-09-07T17:20:22.922Z,28.01
2022-09-07T17:22:52.241Z,27.90
2022-09-07T17:25:20.207Z,28.11
2022-09-07T17:27:47.854Z,28.09
2022-09-07T17:30:35.272Z,27.91
2022-09-07T17:33:36.267Z,27.83
2022-09-07T17:36:19.005Z,28.15
2022-09-07T17:41:33.254Z,27.81
2022-09-07T17:44:20.294Z,27.70
2022-09-07T17:47:00.867Z,27.49
2022-09-07T17:49:36.269Z,27.54
2022-09-07T17:52:30.322Z,27.64
2022-09-07T17:55:06.800Z,27.28
2022-09-07T17:57:53.274Z,27.39
2022-09-07T18:00:34.519Z,27.46
2022-09-07T18:03:03.488Z,27.37
2022-09-07T18:05:50.290Z,27.21
2022-09-07T18:08:51.341Z,27.33
2022-09-07T18:11:47.571Z,27.27
2022-09-07T18:14:15.408Z,27.10
2022-09-07T18:16:44.977Z,27.19
2022-09-07T18:19:12.579Z,27.23
2022-09-07T18:21:42.182Z,27.26
2022-09-07T18:24:16.981Z,27.17
2022-09-07T18:26:50.236Z,26.97
2022-09-07T18:29:28.914Z,26.85
2022-09-07T18:31:58.668Z,26.82
2022-09-07T18:34:26.097Z,26.32
2022-09-07T18:36:52.989Z,26.83
2022-09-07T18:39:42.387Z,26.91
2022-09-07T18:42:43.319Z,26.66
2022-09-07T18:45:44.405Z,26.41
2022-09-07T18:48:24.796Z,26.52
2022-09-07T18:51:11.340Z,26.56
2022-09-07T18:53:51.940Z,26.29
2022-09-07T18:56:21.896Z,26.36
2022-09-07T18:58:49.008Z,26.82
2022-09-07T19:01:18.317Z,26.89
2022-09-07T19:03:53.414Z,26.60
2022-09-07T19:06:20.722Z,26.85
2022-09-07T19:09:11.360Z,26.77
2022-09-07T19:11:52.010Z,26.84
2022-09-07T19:14:18.897Z,26.86
2022-09-07T19:16:45.795Z,26.62
2022-09-07T19:19:13.675Z,26.45
2022-09-07T19:21:46.478Z,26.99
2022-09-07T19:24:15.852Z,27.02
2022-09-07T19:26:47.972Z,27.01
2022-09-07T19:29:35.342Z,26.90
2022-09-07T19:32:17.084Z,26.79
2022-09-07T19:35:04.370Z,26.59
2022-09-07T19:37:44.945Z,26.45
2022-09-07T19:40:15.847Z,26.08
2022-09-07T19:42:45.553Z,26.45
2022-09-07T19:45:12.512Z,26.52
2022-09-07T19:47:39.383Z,26.44
2022-09-07T19:50:27.357Z,26.33
2022-09-07T19:53:28.467Z,26.27
2022-09-07T19:56:14.183Z,26.41
2022-09-07T19:58:42.998Z,26.42
2022-09-07T20:01:29.462Z,26.08
2022-09-07T20:04:05.692Z,26.11
2022-09-07T20:06:34.970Z,26.06
2022-09-07T20:09:22.466Z,26.10
2022-09-07T20:12:03.887Z,26.04
2022-09-07T20:14:30.764Z,25.95
2022-09-07T20:16:57.995Z,26.22
2022-09-07T20:19:45.412Z,26.00
2022-09-07T20:22:46.375Z,25.84
2022-09-07T20:25:27.006Z,25.87
2022-09-07T20:27:53.813Z,25.64
2022-09-07T20:30:24.249Z,25.66
2022-09-07T20:32:51.123Z,25.76
2022-09-07T20:35:18.100Z,25.33
2022-09-07T20:37:45.029Z,25.49
2022-09-07T20:40:32.402Z,25.56
2022-09-07T20:43:12.886Z,25.71
2022-09-07T20:45:39.783Z,25.58
2022-09-07T20:48:06.654Z,25.25
2022-09-07T20:50:53.376Z,25.30
2022-09-07T20:53:34.218Z,25.50
2022-09-07T20:56:23.561Z,25.60
2022-09-07T20:59:18.411Z,25.30
2022-09-07T21:02:19.495Z,25.35
2022-09-07T21:04:59.941Z,25.41
2022-09-07T21:07:47.423Z,25.34
2022-09-07T21:10:52.439Z,25.53
2022-09-07T21:13:32.998Z,25.24
2022-09-07T21:16:06.838Z,25.39
2022-09-07T21:18:53.440Z,25.28
2022-09-07T21:21:38.976Z,25.40
2022-09-07T21:24:07.639Z,24.96
2022-09-07T21:26:34.746Z,25.05
2022-09-07T21:29:05.182Z,25.28
2022-09-07T21:31:33.719Z,25.35
2022-09-07T21:34:02.229Z,25.38
2022-09-07T21:36:49.421Z,25.12
2022-09-07T21:39:29.977Z,24.96
2022-09-07T21:41:56.948Z,24.93
2022-09-07T21:44:24.645Z,24.57
2022-09-07T21:46:51.543Z,24.65
2022-09-07T21:49:18.470Z,24.72
2022-09-07T21:52:05.439Z,24.87
2022-09-07T21:54:46.272Z,24.63
2022-09-07T21:57:13.138Z,24.51
2022-09-07T21:59:40.041Z,24.42
2022-09-07T22:02:06.887Z,24.88
2022-09-07T22:04:33.696Z,24.70
2022-09-07T22:07:00.524Z,24.67
2022-09-07T22:09:27.438Z,24.44
2022-09-07T22:11:54.451Z,24.40
2022-09-07T22:14:21.283Z,24.65
2022-09-07T22:16:48.153Z,24.42
2022-09-07T22:19:35.508Z,24.46
2022-09-07T22:22:36.451Z,24.41
2022-09-07T22:25:17.119Z,24.21
2022-09-07T22:27:44.373Z,23.77
2022-09-07T22:30:11.950Z,24.02
2022-09-07T22:32:38.765Z,24.14
2022-09-07T22:35:06.175Z,24.25
2022-09-07T22:37:33.042Z,23.77
2022-09-07T22:39:59.910Z,24.10
2022-09-07T22:42:26.743Z,24.18
2022-09-07T22:44:53.908Z,24.13
2022-09-07T22:47:20.745Z,23.96
2022-09-07T22:49:47.714Z,23.86
2022-09-07T22:52:34.523Z,23.90
2022-09-07T22:55:15.107Z,23.67
2022-09-07T22:57:41.992Z,23.73
2022-09-07T23:00:09.848Z,23.78
2022-09-07T23:02:36.691Z,23.79
2022-09-07T23:05:04.137Z,23.63
2022-09-07T23:07:31.042Z,23.86
2022-09-07T23:09:57.904Z,23.46
2022-09-07T23:12:24.969Z,23.55
2022-09-07T23:14:51.853Z,23.40
2022-09-07T23:17:18.733Z,23.25
2022-09-07T23:19:45.632Z,23.10
2022-09-07T23:22:12.877Z,23.31
2022-09-07T23:25:00.529Z,23.25
2022-09-07T23:28:01.497Z,23.34
2022-09-07T23:31:04.525Z,23.43
2022-09-07T23:33:58.607Z,23.35
2022-09-07T23:36:59.480Z,22.90
2022-09-07T23:39:41.887Z,22.73
2022-09-07T23:42:08.782Z,22.83
2022-09-07T23:44:35.852Z,23.11
2022-09-07T23:47:02.768Z,23.19
2022-09-07T23:49:49.790Z,22.93
2022-09-07T23:52:41.303Z,22.89
2022-09-07T23:55:09.136Z,23.00
2022-09-07T23:57:36.348Z,23.00
